createdAt,value
2017-08-21T00:01:11.066Z,12.20
2017-08-21T00:03:39.541Z,12.20
2017-08-21T00:06:07.883Z,12.20
2017-08-21T00:08:36.143Z,12.10
2017-08-21T00:11:04.408Z,12.10
2017-08-21T00:13:32.658Z,12.10
2017-08-21T00:16:01.056Z,12.10
2017-08-21T00:18:29.318Z,12.00
2017-08-21T00:20:57.548Z,12.00
2017-08-21T00:23:25.781Z,12.00
2017-08-21T00:25:54.050Z,12.00
2017-08-21T00:28:22.318Z,12.00
2017-08-21T00:30:50.600Z,12.10
2017-08-21T00:33:20.158Z,12.10
2017-08-21T00:35:48.434Z,12.00
2017-08-21T00:38:17.465Z,11.90
2017-08-21T00:40:45.878Z,11.90
2017-08-21T00:43:14.232Z,12.00
2017-08-21T00:45:42.532Z,12.00
2017-08-21T00:48:10.765Z,11.90
2017-08-21T00:50:39.007Z,11.80
2017-08-21T00:53:08.050Z,11.70
2017-08-21T00:55:36.291Z,11.70
2017-08-21T00:58:05.324Z,11.60
2017-08-21T01:00:33.583Z,11.60
2017-08-21T01:03:01.874Z,11.60
2017-08-21T01:05:30.124Z,11.60
2017-08-21T01:07:58.391Z,11.60
2017-08-21T01:10:27.435Z,11.50
2017-08-21T01:12:55.709Z,11.60
2017-08-21T01:15:24.209Z,11.60
2017-08-21T01:17:52.611Z,11.50
2017-08-21T01:20:20.841Z,11.50
2017-08-21T01:22:49.154Z,11.50
2017-08-21T01:25:17.403Z,11.50
2017-08-21T01:27:45.644Z,11.50
2017-08-21T01:30:42.727Z,11.50
2017-08-21T01:33:10.980Z,11.60
2017-08-21T01:35:39.244Z,11.60
2017-08-21T01:38:07.510Z,11.50
2017-08-21T01:40:35.776Z,11.60
2017-08-21T01:43:04.372Z,11.50
2017-08-21T01:45:32.646Z,11.50
2017-08-21T01:48:00.865Z,11.60
2017-08-21T01:50:29.161Z,11.50
2017-08-21T01:52:57.539Z,11.60
2017-08-21T01:55:25.774Z,11.50
2017-08-21T01:57:54.063Z,11.50
2017-08-21T02:00:22.329Z,11.40
2017-08-21T02:02:50.566Z,11.40
2017-08-21T02:05:18.806Z,11.30
2017-08-21T02:07:47.051Z,11.30
2017-08-21T02:10:15.310Z,11.40
2017-08-21T02:12:43.539Z,11.30
2017-08-21T02:15:11.933Z,11.20
2017-08-21T02:17:40.150Z,11.20
2017-08-21T02:20:08.394Z,11.20
2017-08-21T02:22:37.195Z,11.20
2017-08-21T02:25:05.456Z,11.10
2017-08-21T02:27:33.700Z,11.10
2017-08-21T02:30:01.922Z,11.00
2017-08-21T02:32:30.189Z,11.00
2017-08-21T02:34:58.474Z,10.90
2017-08-21T02:37:26.703Z,10.90
2017-08-21T02:39:54.964Z,10.90
2017-08-21T02:42:23.233Z,10.80
2017-08-21T02:44:51.494Z,10.90
2017-08-21T02:47:19.711Z,10.80
2017-08-21T02:49:47.975Z,10.80
2017-08-21T02:52:16.233Z,10.80
2017-08-21T02:54:44.484Z,10.80
2017-08-21T02:57:12.737Z,10.80
2017-08-21T02:59:40.998Z,10.80
2017-08-21T03:02:09.648Z,10.80
2017-08-21T03:04:37.934Z,10.70
2017-08-21T03:07:06.156Z,10.70
2017-08-21T03:09:34.421Z,10.70
2017-08-21T03:12:02.675Z,10.70
2017-08-21T03:14:30.942Z,10.60
2017-08-21T03:16:59.332Z,10.60
2017-08-21T03:19:27.585Z,10.50
2017-08-21T03:21:55.834Z,10.50
2017-08-21T03:24:24.071Z,10.50
2017-08-21T03:26:52.357Z,10.40
2017-08-21T03:29:20.666Z,10.50
2017-08-21T03:31:48.922Z,10.50
2017-08-21T03:34:17.174Z,10.50
2017-08-21T03:36:45.419Z,10.50
2017-08-21T03:39:13.670Z,10.60
2017-08-21T03:41:42.177Z,10.60
2017-08-21T03:44:10.438Z,10.70
2017-08-21T03:46:38.681Z,10.80
2017-08-21T03:49:06.934Z,10.70
2017-08-21T03:51:35.202Z,10.80
2017-08-21T03:54:03.541Z,10.80
2017-08-21T03:56:31.752Z,10.80
2017-08-21T03:59:00.018Z,10.70
2017-08-21T04:01:28.257Z,10.60
2017-08-21T04:03:56.522Z,10.60
2017-08-21T04:06:24.778Z,10.60
2017-08-21T04:08:53.017Z,10.70
2017-08-21T04:11:21.283Z,10.80
2017-08-21T04:13:50.563Z,10.90
2017-08-21T04:16:18.805Z,10.90
2017-08-21T04:18:47.577Z,10.90
2017-08-21T04:21:16.014Z,10.80
2017-08-21T04:23:44.243Z,10.80
2017-08-21T04:26:12.483Z,10.80
2017-08-21T04:28:40.751Z,10.70
2017-08-21T04:31:09.024Z,10.80
2017-08-21T04:33:37.286Z,10.80
2017-08-21T04:36:05.535Z,10.70
2017-08-21T04:38:33.791Z,10.70
2017-08-21T04:41:02.048Z,10.70
2017-08-21T04:43:30.294Z,10.70
2017-08-21T04:45:58.536Z,10.80
2017-08-21T04:48:26.815Z,10.90
2017-08-21T04:50:55.150Z,11.00
2017-08-21T04:53:23.436Z,11.00
2017-08-21T04:55:51.822Z,11.20
2017-08-21T04:58:20.043Z,11.20
2017-08-21T05:00:48.278Z,11.30
2017-08-21T05:03:16.547Z,11.30
2017-08-21T05:05:44.797Z,11.40
2017-08-21T05:08:13.083Z,11.40
2017-08-21T05:10:41.343Z,11.50
2017-08-21T05:13:09.667Z,11.50
2017-08-21T05:15:37.902Z,11.50
2017-08-21T05:18:06.145Z,11.50
2017-08-21T05:20:34.403Z,11.60
2017-08-21T05:23:02.653Z,11.50
2017-08-21T05:25:30.892Z,11.50
2017-08-21T05:27:59.126Z,11.40
2017-08-21T05:30:27.382Z,11.50
2017-08-21T05:32:55.668Z,11.60
2017-08-21T05:35:23.890Z,11.60
2017-08-21T05:37:52.158Z,11.70
2017-08-21T05:40:20.414Z,11.80
2017-08-21T05:42:48.669Z,11.80
2017-08-21T05:45:16.922Z,11.90
2017-08-21T05:47:45.193Z,11.90
2017-08-21T05:50:13.466Z,12.00
2017-08-21T05:52:41.698Z,12.10
2017-08-21T05:55:10.056Z,12.10
2017-08-21T05:57:38.274Z,12.10
2017-08-21T06:00:06.535Z,12.20
2017-08-21T06:02:34.782Z,12.10
2017-08-21T06:05:03.056Z,12.10
2017-08-21T06:07:31.330Z,12.10
2017-08-21T06:09:59.725Z,12.30
2017-08-21T06:12:27.981Z,12.30
2017-08-21T06:14:56.237Z,12.30
2017-08-21T06:17:24.515Z,12.30
2017-08-21T06:19:52.751Z,12.40
2017-08-21T06:22:21.053Z,12.40
2017-08-21T06:24:49.289Z,12.50
2017-08-21T06:27:17.552Z,12.60
2017-08-21T06:29:45.855Z,12.60
2017-08-21T06:32:14.066Z,12.60
2017-08-21T06:34:42.393Z,12.60
2017-08-21T06:37:10.765Z,12.50
2017-08-21T06:39:38.973Z,12.60
2017-08-21T06:42:07.265Z,12.80
2017-08-21T06:44:35.504Z,12.90
2017-08-21T06:47:03.748Z,12.80
2017-08-21T06:49:32.012Z,12.80
2017-08-21T06:52:00.313Z,12.90
2017-08-21T06:54:28.553Z,13.00
2017-08-21T06:56:56.807Z,13.10
2017-08-21T06:59:25.160Z,13.20
2017-08-21T07:01:53.437Z,13.20
2017-08-21T07:04:21.682Z,13.40
2017-08-21T07:06:49.941Z,13.50
2017-08-21T07:09:18.189Z,13.50
2017-08-21T07:11:46.451Z,13.60
2017-08-21T07:14:15.046Z,13.70
2017-08-21T07:16:43.282Z,13.80
2017-08-21T07:19:11.546Z,14.00
2017-08-21T07:21:39.806Z,13.90
2017-08-21T07:24:08.049Z,14.00
2017-08-21T07:26:36.370Z,14.10
2017-08-21T07:29:04.610Z,14.20
2017-08-21T07:31:32.883Z,14.10
2017-08-21T07:34:01.181Z,14.30
2017-08-21T07:36:29.532Z,14.40
2017-08-21T07:38:59.235Z,14.60
2017-08-21T07:41:27.491Z,14.70
2017-08-21T07:43:55.725Z,14.90
2017-08-21T07:46:23.969Z,15.00
2017-08-21T07:48:52.250Z,15.00
2017-08-21T07:51:20.541Z,15.10
2017-08-21T07:53:48.821Z,15.20
2017-08-21T07:56:17.068Z,15.40
2017-08-21T07:58:45.320Z,15.50
2017-08-21T08:01:13.621Z,15.70
2017-08-21T08:03:42.777Z,15.70
2017-08-21T08:06:11.031Z,15.80
2017-08-21T08:08:39.383Z,16.00
2017-08-21T08:11:07.667Z,16.10
2017-08-21T08:13:35.922Z,16.20
2017-08-21T08:16:04.183Z,16.30
2017-08-21T08:18:32.653Z,16.40
2017-08-21T08:21:00.882Z,16.60
2017-08-21T08:23:29.135Z,16.80
2017-08-21T08:25:57.434Z,16.90
2017-08-21T08:28:26.742Z,16.90
2017-08-21T08:30:54.995Z,17.20
2017-08-21T08:33:23.238Z,17.30
2017-08-21T08:35:51.524Z,17.20
2017-08-21T08:38:19.881Z,17.30
2017-08-21T08:40:48.132Z,17.50
2017-08-21T08:43:16.406Z,17.60
2017-08-21T08:45:44.645Z,17.70
2017-08-21T08:48:12.946Z,17.80
2017-08-21T08:50:41.223Z,17.80
2017-08-21T08:53:09.435Z,17.90
2017-08-21T08:55:37.722Z,18.00
2017-08-21T08:58:05.970Z,18.10
2017-08-21T09:00:34.217Z,18.20
2017-08-21T09:03:02.486Z,18.30
2017-08-21T09:05:30.966Z,18.30
2017-08-21T09:07:59.573Z,18.20
2017-08-21T09:10:27.838Z,18.00
2017-08-21T09:12:56.102Z,18.20
2017-08-21T09:15:24.406Z,18.40
2017-08-21T09:17:52.678Z,18.50
2017-08-21T09:20:20.918Z,18.50
2017-08-21T09:22:49.188Z,18.30
2017-08-21T09:25:17.456Z,18.20
2017-08-21T09:27:46.669Z,18.00
2017-08-21T09:30:14.906Z,18.20
2017-08-21T09:32:43.170Z,18.40
2017-08-21T09:35:11.464Z,18.70
2017-08-21T09:37:39.688Z,18.90
2017-08-21T09:40:07.941Z,18.80
2017-08-21T09:42:36.203Z,18.50
2017-08-21T09:45:06.193Z,18.40
2017-08-21T09:47:34.466Z,18.30
2017-08-21T09:50:02.745Z,18.30
2017-08-21T09:52:31.127Z,18.30
2017-08-21T09:54:59.378Z,18.40
2017-08-21T09:57:27.653Z,18.60
2017-08-21T09:59:55.887Z,18.70
2017-08-21T10:02:24.166Z,18.80
2017-08-21T10:04:52.399Z,19.10
2017-08-21T10:07:20.689Z,19.30
2017-08-21T10:09:48.923Z,19.30
2017-08-21T10:12:17.215Z,19.40
2017-08-21T10:14:45.495Z,19.00
2017-08-21T10:17:13.754Z,19.10
2017-08-21T10:19:42.030Z,19.40
2017-08-21T10:22:10.318Z,19.60
2017-08-21T10:24:49.540Z,19.70
2017-08-21T10:27:17.798Z,19.90
2017-08-21T10:29:46.058Z,20.10
2017-08-21T10:32:14.385Z,19.90
2017-08-21T10:34:42.641Z,19.80
2017-08-21T10:37:10.864Z,19.90
2017-08-21T10:39:39.173Z,19.60
2017-08-21T10:42:07.439Z,19.30
2017-08-21T10:44:35.685Z,19.20
2017-08-21T10:47:03.966Z,19.20
2017-08-21T10:49:32.262Z,19.20
2017-08-21T10:52:00.503Z,19.60
2017-08-21T10:54:28.812Z,19.80
2017-08-21T10:56:57.058Z,19.90
2017-08-21T10:59:25.297Z,20.00
2017-08-21T11:01:53.563Z,19.90
2017-08-21T11:04:21.880Z,19.60
2017-08-21T11:06:50.174Z,19.50
2017-08-21T11:09:18.425Z,19.30
2017-08-21T11:11:46.807Z,19.40
2017-08-21T11:14:15.072Z,19.60
2017-08-21T11:16:43.424Z,19.70
2017-08-21T11:19:11.700Z,19.90
2017-08-21T11:21:39.965Z,20.10
2017-08-21T11:24:08.240Z,20.20
2017-08-21T11:26:36.541Z,20.10
2017-08-21T11:29:04.805Z,20.10
2017-08-21T11:31:33.058Z,20.30
2017-08-21T11:34:01.335Z,20.50
2017-08-21T11:36:29.612Z,20.90
2017-08-21T11:38:57.874Z,20.60
2017-08-21T11:41:26.159Z,20.40
2017-08-21T11:43:54.436Z,20.50
2017-08-21T11:46:22.720Z,20.60
2017-08-21T11:48:51.020Z,20.90
2017-08-21T11:51:19.254Z,21.00
2017-08-21T11:53:47.518Z,20.90
2017-08-21T11:56:15.806Z,20.90
2017-08-21T11:58:44.075Z,21.10
2017-08-21T12:01:12.342Z,20.90
2017-08-21T12:03:40.543Z,20.90
2017-08-21T12:06:08.837Z,21.20
2017-08-21T12:08:37.083Z,21.60
2017-08-21T12:11:05.354Z,21.80
2017-08-21T12:13:33.633Z,21.80
2017-08-21T12:16:01.893Z,21.40
2017-08-21T12:18:30.243Z,21.10
2017-08-21T12:20:58.494Z,21.40
2017-08-21T12:23:26.742Z,21.50
2017-08-21T12:25:55.022Z,21.60
2017-08-21T12:28:23.266Z,21.30
2017-08-21T12:30:51.508Z,21.20
2017-08-21T12:33:19.779Z,21.40
2017-08-21T12:35:48.043Z,21.30
2017-08-21T12:38:16.326Z,21.50
2017-08-21T12:40:44.604Z,20.90
2017-08-21T12:43:12.847Z,21.10
2017-08-21T12:45:41.171Z,21.10
2017-08-21T12:48:09.423Z,21.10
2017-08-21T12:50:37.691Z,21.20
2017-08-21T12:53:05.961Z,21.20
2017-08-21T12:55:34.205Z,21.20
2017-08-21T12:58:02.476Z,21.20
2017-08-21T13:00:30.735Z,21.10
2017-08-21T13:02:59.002Z,21.30
2017-08-21T13:05:27.226Z,21.20
2017-08-21T13:07:55.511Z,20.80
2017-08-21T13:10:23.777Z,21.10
2017-08-21T13:12:52.043Z,21.10
2017-08-21T13:15:20.318Z,20.90
2017-08-21T13:17:48.666Z,20.90
2017-08-21T13:20:16.907Z,21.00
2017-08-21T13:22:45.831Z,21.10
2017-08-21T13:25:14.119Z,20.90
2017-08-21T13:27:42.370Z,20.90
2017-08-21T13:30:10.623Z,21.00
2017-08-21T13:32:38.893Z,20.80
2017-08-21T13:35:07.164Z,20.80
2017-08-21T13:37:35.396Z,21.00
2017-08-21T13:40:04.283Z,20.80
2017-08-21T13:42:32.531Z,20.80
2017-08-21T13:45:00.751Z,20.90
2017-08-21T13:47:29.053Z,20.90
2017-08-21T13:49:57.331Z,20.80
2017-08-21T13:52:25.598Z,20.80
2017-08-21T13:54:53.827Z,20.70
2017-08-21T13:57:22.141Z,20.60
2017-08-21T13:59:50.376Z,20.70
2017-08-21T14:02:18.651Z,20.80
2017-08-21T14:04:46.914Z,21.00
2017-08-21T14:07:15.351Z,21.20
2017-08-21T14:09:43.505Z,21.40
2017-08-21T14:12:11.744Z,21.60
2017-08-21T14:14:39.979Z,21.60
2017-08-21T14:17:08.246Z,21.50
2017-08-21T14:19:36.480Z,21.20
2017-08-21T14:22:05.101Z,21.00
2017-08-21T14:24:33.351Z,20.80
2017-08-21T14:27:01.614Z,20.70
2017-08-21T14:29:29.952Z,20.60
2017-08-21T14:31:58.219Z,20.60
2017-08-21T14:34:26.468Z,20.80
2017-08-21T14:36:54.790Z,20.80
2017-08-21T14:39:23.016Z,20.70
2017-08-21T14:41:51.351Z,20.70
2017-08-21T14:44:19.603Z,20.80
2017-08-21T14:46:47.903Z,20.80
2017-08-21T14:49:19.259Z,20.90
2017-08-21T14:51:47.512Z,20.80
2017-08-21T14:54:15.799Z,20.80
2017-08-21T14:56:44.112Z,20.80
2017-08-21T14:59:12.362Z,21.00
2017-08-21T15:01:40.603Z,21.10
2017-08-21T15:04:08.851Z,21.10
2017-08-21T15:06:37.126Z,21.20
2017-08-21T15:09:05.479Z,21.40
2017-08-21T15:11:33.697Z,21.50
2017-08-21T15:14:01.974Z,21.70
2017-08-21T15:16:30.230Z,21.50
2017-08-21T15:18:58.464Z,21.30
2017-08-21T15:21:26.861Z,21.50
2017-08-21T15:23:55.094Z,21.70
2017-08-21T15:26:23.349Z,21.80
2017-08-21T15:28:51.602Z,21.90
2017-08-21T15:31:19.859Z,22.00
2017-08-21T15:33:48.282Z,21.90
2017-08-21T15:36:16.634Z,21.80
2017-08-21T15:38:44.879Z,21.60
2017-08-21T15:41:13.566Z,21.30
2017-08-21T15:43:41.848Z,21.20
2017-08-21T15:46:10.120Z,21.20
2017-08-21T15:48:38.391Z,21.20
2017-08-21T15:51:06.639Z,21.30
2017-08-21T15:53:35.280Z,21.40
2017-08-21T15:56:03.518Z,21.40
2017-08-21T15:58:31.777Z,21.30
2017-08-21T16:01:00.016Z,21.10
2017-08-21T16:03:28.316Z,21.10
2017-08-21T16:05:56.570Z,21.00
2017-08-21T16:08:24.828Z,20.90
2017-08-21T16:10:53.098Z,20.80
2017-08-21T16:13:21.383Z,20.90
2017-08-21T16:15:49.644Z,20.90
2017-08-21T16:18:17.898Z,20.90
2017-08-21T16:20:46.142Z,20.90
2017-08-21T16:23:14.410Z,20.90
2017-08-21T16:25:42.655Z,20.80
2017-08-21T16:28:11.000Z,20.90
2017-08-21T16:30:39.303Z,20.90
2017-08-21T16:33:07.626Z,20.90
2017-08-21T16:35:37.089Z,20.80
2017-08-21T16:38:05.613Z,20.90
2017-08-21T16:40:33.905Z,20.80
2017-08-21T16:43:02.207Z,20.60
2017-08-21T16:45:30.454Z,20.50
2017-08-21T16:47:58.766Z,20.40
2017-08-21T16:50:27.015Z,20.40
2017-08-21T16:52:55.290Z,20.30
2017-08-21T16:55:23.570Z,20.40
2017-08-21T16:57:51.816Z,20.40
2017-08-21T17:00:20.233Z,20.30
2017-08-21T17:02:48.516Z,20.10
2017-08-21T17:05:16.784Z,20.00
2017-08-21T17:07:45.060Z,19.90
2017-08-21T17:10:13.570Z,19.90
2017-08-21T17:12:41.800Z,19.80
2017-08-21T17:15:10.057Z,19.70
2017-08-21T17:17:38.335Z,19.60
2017-08-21T17:20:06.835Z,19.40
2017-08-21T17:22:35.523Z,19.30
2017-08-21T17:25:03.547Z,19.30
2017-08-21T17:27:31.543Z,19.30
2017-08-21T17:30:00.012Z,19.40
2017-08-21T17:32:28.396Z,19.30
2017-08-21T17:34:56.729Z,19.20
2017-08-21T17:37:24.985Z,19.10
2017-08-21T17:39:53.226Z,18.90
2017-08-21T17:42:21.535Z,18.90
2017-08-21T17:44:49.824Z,18.80
2017-08-21T17:47:18.064Z,18.90
2017-08-21T17:49:46.364Z,18.90
2017-08-21T17:52:14.599Z,18.90
2017-08-21T17:54:42.884Z,18.70
2017-08-21T17:57:11.166Z,18.60
2017-08-21T17:59:39.431Z,18.60
2017-08-21T18:02:07.697Z,18.60
2017-08-21T18:04:36.193Z,18.50
2017-08-21T18:07:05.947Z,18.40
2017-08-21T18:09:34.251Z,18.30
2017-08-21T18:12:02.634Z,18.20
2017-08-21T18:14:30.917Z,18.10
2017-08-21T18:16:59.244Z,18.10
2017-08-21T18:19:27.488Z,18.00
2017-08-21T18:21:55.764Z,17.90
2017-08-21T18:24:24.009Z,17.70
2017-08-21T18:26:52.348Z,17.50
2017-08-21T18:29:20.659Z,17.40
2017-08-21T18:31:49.855Z,17.40
2017-08-21T18:34:18.232Z,17.30
2017-08-21T18:36:46.936Z,17.30
2017-08-21T18:39:15.816Z,17.30
2017-08-21T18:41:44.420Z,17.30
2017-08-21T18:44:12.876Z,17.20
2017-08-21T18:46:43.113Z,17.00
2017-08-21T18:49:13.094Z,16.90
2017-08-21T18:51:41.368Z,16.80
2017-08-21T18:54:09.669Z,16.80
2017-08-21T18:56:37.916Z,16.60
2017-08-21T18:59:06.203Z,16.60
2017-08-21T19:01:34.673Z,16.50
2017-08-21T19:04:02.951Z,16.50
2017-08-21T19:06:31.933Z,16.30
2017-08-21T19:09:01.473Z,16.10
2017-08-21T19:11:29.762Z,16.10
2017-08-21T19:13:58.037Z,16.00
2017-08-21T19:16:26.335Z,16.00
2017-08-21T19:18:54.619Z,16.00
2017-08-21T19:21:22.901Z,15.90
2017-08-21T19:23:51.179Z,15.80
2017-08-21T19:26:20.380Z,15.70
2017-08-21T19:28:48.660Z,15.50
2017-08-21T19:31:17.019Z,15.40
2017-08-21T19:33:45.307Z,15.20
2017-08-21T19:36:13.968Z,15.10
2017-08-21T19:38:42.276Z,15.00
2017-08-21T19:41:10.638Z,14.80
2017-08-21T19:43:39.230Z,14.70
2017-08-21T19:46:08.290Z,14.50
2017-08-21T19:48:37.011Z,14.50
2017-08-21T19:51:05.375Z,14.40
2017-08-21T19:53:33.674Z,14.40
2017-08-21T19:56:02.006Z,14.40
2017-08-21T19:58:31.843Z,14.30
2017-08-21T20:01:00.151Z,14.10
2017-08-21T20:03:28.455Z,14.00
2017-08-21T20:05:56.744Z,13.90
2017-08-21T20:08:24.982Z,13.90
2017-08-21T20:10:53.297Z,13.80
2017-08-21T20:13:21.554Z,13.80
2017-08-21T20:15:49.851Z,13.80
2017-08-21T20:18:18.171Z,13.90
2017-08-21T20:20:46.417Z,13.90
2017-08-21T20:23:14.789Z,13.80
2017-08-21T20:25:43.071Z,13.70
2017-08-21T20:28:11.340Z,13.70
2017-08-21T20:30:39.758Z,13.60
2017-08-21T20:33:08.033Z,13.50
2017-08-21T20:35:36.324Z,13.40
2017-08-21T20:38:04.602Z,13.40
2017-08-21T20:40:32.869Z,13.30
2017-08-21T20:43:01.123Z,13.30
2017-08-21T20:45:29.504Z,13.20
2017-08-21T20:47:57.976Z,13.10
2017-08-21T20:50:29.838Z,13.10
2017-08-21T20:52:59.090Z,13.10
2017-08-21T20:55:27.552Z,13.20
2017-08-21T20:57:55.863Z,13.20
2017-08-21T21:00:24.127Z,13.10
2017-08-21T21:02:52.437Z,13.10
2017-08-21T21:05:20.717Z,13.10
2017-08-21T21:07:49.013Z,13.10
2017-08-21T21:10:17.451Z,13.00
2017-08-21T21:12:45.704Z,13.00
2017-08-21T21:15:13.938Z,12.90
2017-08-21T21:17:42.233Z,12.90
2017-08-21T21:20:10.496Z,12.90
2017-08-21T21:22:38.790Z,12.80
2017-08-21T21:25:07.031Z,12.80
2017-08-21T21:27:35.464Z,12.80
2017-08-21T21:30:03.776Z,12.70
2017-08-21T21:32:32.055Z,12.60
2017-08-21T21:35:00.372Z,12.60
2017-08-21T21:37:28.642Z,12.50
2017-08-21T21:39:56.879Z,12.60
2017-08-21T21:42:25.173Z,12.60
2017-08-21T21:44:53.400Z,12.60
2017-08-21T21:47:21.663Z,12.60
2017-08-21T21:49:49.923Z,12.50
2017-08-21T21:52:18.213Z,12.60
2017-08-21T21:54:46.473Z,12.50
2017-08-21T21:57:14.753Z,12.60
2017-08-21T21:59:42.986Z,12.60
2017-08-21T22:02:11.240Z,12.60
2017-08-21T22:04:39.484Z,12.60
2017-08-21T22:07:07.767Z,12.60
2017-08-21T22:09:36.053Z,12.70
2017-08-21T22:12:04.306Z,12.80
2017-08-21T22:14:32.534Z,12.80
2017-08-21T22:17:00.791Z,12.80
2017-08-21T22:19:29.087Z,12.80
2017-08-21T22:21:57.340Z,12.70
2017-08-21T22:24:25.570Z,12.70
2017-08-21T22:26:53.853Z,12.70
2017-08-21T22:29:22.071Z,12.70
2017-08-21T22:31:50.465Z,12.80
2017-08-21T22:34:18.694Z,12.90
2017-08-21T22:36:46.946Z,12.80
2017-08-21T22:39:15.207Z,12.80
2017-08-21T22:41:43.454Z,12.80
2017-08-21T22:44:12.173Z,12.70
2017-08-21T22:46:40.445Z,12.70
2017-08-21T22:49:09.032Z,12.80
2017-08-21T22:51:37.297Z,12.80
2017-08-21T22:54:05.553Z,12.70
2017-08-21T22:56:33.821Z,12.70
2017-08-21T22:59:02.062Z,12.70
2017-08-21T23:01:30.312Z,12.60
2017-08-21T23:03:58.594Z,12.70
2017-08-21T23:06:26.823Z,12.70
2017-08-21T23:08:55.086Z,12.70
2017-08-21T23:11:23.393Z,12.70
2017-08-21T23:13:51.616Z,12.70
2017-08-21T23:16:19.884Z,12.60
2017-08-21T23:18:48.134Z,12.60
2017-08-21T23:21:16.385Z,12.60
2017-08-21T23:23:44.651Z,12.50
2017-08-21T23:26:12.866Z,12.60
2017-08-21T23:28:41.146Z,12.50
2017-08-21T23:31:09.391Z,12.50
2017-08-21T23:33:37.665Z,12.50
2017-08-21T23:36:05.915Z,12.50
2017-08-21T23:38:34.210Z,12.60
2017-08-21T23:41:02.433Z,12.50
2017-08-21T23:43:30.704Z,12.50
2017-08-21T23:45:58.941Z,12.40
2017-08-21T23:48:27.180Z,12.50
2017-08-21T23:50:55.451Z,12.50
2017-08-21T23:53:23.742Z,12.50
2017-08-21T23:55:52.021Z,12.40
2017-08-21T23:58:20.285Z,12.30
